[000:069] [2022-02-08 18:34:55 +0000.
676596][1215] Log to
file:/storage/emulated/0/voip-data/[Link]/[Link] start time:2022-02-
08 18:34:55 +0000
[000:069] [2022-02-08 18:34:55 +0000.676724][1215] dump file m_prefix:-04-21-
feaf968
[000:076] [2022-02-08 18:34:55 +0000.683177][1215] dump filename:[Link] dump
time:1644345295
[000:076] [2022-02-08 18:34:55 +0000.683521][1215] set AppID=50011 old AppID=-1
[000:076] [2022-02-08 18:34:55 +0000.683562][1215] Init the android object with
jvm:0xb400007762470380 env:0x76becdfcc0 context:0x7668b71308
[000:076] [2022-02-08 18:34:55 +0000.683608][1215] SetAndroidMediaCodecObjects
time:89231504 enter.
[000:076] [2022-02-08 18:34:55 +0000.683632][1215] SetAndroidMediaCodecObjects
leave. expire time = 0 ms
[000:076] [2022-02-08 18:34:55 +0000.683653][1215] SetAndroidMediaCodecObjects
time:89231504 enter.
[000:076] [2022-02-08 18:34:55 +0000.683671][1215] SetAndroidMediaCodecObjects:
SetAndroidMediaCodecObjects:: jvm :0xb400007762470380
[000:076] [2022-02-08 18:34:55 +0000.683688][1215] SetAndroidMediaCodecObjects:
SetAndroidMediaCodecObjects success g_jvm_:0xb400007762470380 address:0x75f0186760
[000:076] [2022-02-08 18:34:55 +0000.683708][1215] SetAndroidMediaCodecObjects:
SetAndroidMediaCodecObjects success g_jvm_encoder_:0xb400007762470380
address:0x75f0186760
[000:076] [2022-02-08 18:34:55 +0000.683726][1215] SetAndroidMediaCodecObjects
leave. expire time = 1 ms
[000:077] [2022-02-08 18:34:55 +0000.683763][1215] Set the android objects with
jvm:0xb400007762470380 env:0x76becdfcc0 context:0x7668b71308
[000:077] [2022-02-08 18:34:55 +0000.683802][1215] audio jni debug :manager
SetAndroidAudioDeviceObjects env:0x76becdfcc0
[000:077] [2022-02-08 18:34:55 +0000.683823][1215] SystemUtil Init done
[000:080] [2022-02-08 18:34:55 +0000.687310][1215]
Java_com_xiaomi_recordmediaprocess_MediaEffectCamera_ConstructMediaEffectCameraJni:
[000:080] [2022-02-08 18:34:55 +0000.687552][1215] MediaFilterCamera
[000:080] [2022-02-08 18:34:55 +0000.687628][1215] RecordingSessionInternalSimple:
Create session internal:720 X 1280 fps:30
[000:081] [2022-02-08 18:34:55 +0000.687776][1215] createSessionInternal: create
session with video size:720 X 1280 fps:30 bitrate:31457280
[000:081] [2022-02-08 18:34:55 +0000.687820][1215] Recording session using default
bitrate support by app:31457280
[000:081] [2022-02-08 18:34:55 +0000.687914][16de] Error([Link]): Set the
pthread name failed with error:34 name:Thread 0x0x76bb25fd40
[000:081] [2022-02-08 18:34:55 +0000.688144][16de] setAudioChannelCount_w:
RecordingSessionInternalSimple:set the audio channel count:2
[000:081] [2022-02-08 18:34:55 +0000.688244][1215] setAudioSampleRate:
RecordingSessionInternalSimple:set the audio bitrate:44100
[000:082] [2022-02-08 18:34:55 +0000.689093][1215] Error([Link]): Open the file
failed. error:2
[000:082] [2022-02-08 18:34:55 +0000.689147][1215]
Error(key_value_pair_store.cc:130): load the data failed from: voip_config.ini
[000:082] [2022-02-08 18:34:55 +0000.689171][1215] The device model: 21061119ag
usingSoftwareAEC value: 0
[000:087] [2022-02-08 18:34:55 +0000.694668][1215] Error([Link]): Open the file
failed. error:2
[000:088] [2022-02-08 18:34:55 +0000.694798][1215]
Error(key_value_pair_store.cc:130): load the data failed from:
/storage/emulated/0/voip-data/[Link]/voip_config.ini
[000:088] [2022-02-08 18:34:55 +0000.694834][1215] The device model: 21061119ag
usingHardwareAEC value: 0
[000:088] [2022-02-08 18:34:55 +0000.694854][1215] The machine device: 21061119ag
usingHardwareAEC value: 0
[000:088] [2022-02-08 18:34:55 +0000.694873][1215] Using Default AEC type: software
AEC
[000:089] [2022-02-08 18:34:55 +0000.696122][1215] The device model: 21061119ag
enum value: 0
[000:090] [2022-02-08 18:34:55 +0000.696892][1215] GetMachineModel is 21061119AG
[000:090] [2022-02-08 18:34:55 +0000.696963][1215] GetMachineInfo: 21061119AG
[000:090] [2022-02-08 18:34:55 +0000.697008][1215] Construct BeautifyReader
begin...
[000:090] [2022-02-08 18:34:55 +0000.697028][1215] dumpStickerRgba:0
dumpStickerYuv:0
[000:090] [2022-02-08 18:34:55 +0000.697070][1215] Construct BeautifyReader done.
[000:095] [2022-02-08 18:34:55 +0000.701883][1215] Error([Link]): Open the file
failed. error:2
[000:095] [2022-02-08 18:34:55 +0000.701962][1215]
Error(key_value_pair_store.cc:130): load the data failed from:
/storage/emulated/0/voip-data/[Link]/support_resolution.txt
[000:095] [2022-02-08 18:34:55 +0000.702086][1215] AppDeviceManagerStartCamera::The
result of start thread is: 1 micOn:0
[000:095] [2022-02-08 18:34:55 +0000.702130][1215] AppDeviceManager telnet server
for statistics started......
[000:095] [2022-02-08 18:34:55 +0000.702157][16e1] Error([Link]): Set the
pthread name failed with error:34 name:Thread 0x0x7638b720a0
[000:095] [2022-02-08 18:34:55 +0000.702756][1215] CpuOverloadDetect time:89231523
enter.
[000:096] [2022-02-08 18:34:55 +0000.702873][1215] CpuOverloadDetect leave. expire
time = 1 ms
[000:096] [2022-02-08 18:34:55 +0000.702934][16e2] Error([Link]): Set the
pthread name failed with error:34 name:Thread 0x0x76272236c0
[000:097] [2022-02-08 18:34:55 +0000.703755][1215] AppDeviceMana
GetOpenslVoiceMode before get setting: 1
[000:097] [2022-02-08 18:34:55 +0000.703792][1215] AppDeviceMana
GetOpenslVoiceMode after get setting: 1
[000:097] [2022-02-08 18:34:55 +0000.704317][1215] AudioManagerAndroid
getProperty:[Link].OUTPUT_SAMPLE_RATE
[000:098] [2022-02-08 18:34:55 +0000.705394][1215] AudioManagerAndroid
getProperty:[Link].OUTPUT_FRAMES_PER_BUFFER
[000:099] [2022-02-08 18:34:55 +0000.706138][1215] CreatePlatformSpecificObjects:
[000:099] [2022-02-08 18:34:55 +0000.706200][1215] audio device use opensle input
and opensl output
[000:099] [2022-02-08 18:34:55 +0000.706252][1215] Create OpenSLES output module
with java VM support.
[000:099] [2022-02-08 18:34:55 +0000.706427][1215] AudioManagerAndroid
getProperty:[Link].OUTPUT_SAMPLE_RATE
[000:099] [2022-02-08 18:34:55 +0000.706721][1215] AudioManagerAndroid
getProperty:[Link].OUTPUT_FRAMES_PER_BUFFER
[000:100] [2022-02-08 18:34:55 +0000.706977][1215] Create OpenSLES output module
with buffer num:1
[000:100] [2022-02-08 18:34:55 +0000.707202][1215] AudioManagerAndroid
getProperty:[Link].OUTPUT_SAMPLE_RATE
[000:100] [2022-02-08 18:34:55 +0000.707372][1215] AudioManagerAndroid
getProperty:[Link].OUTPUT_FRAMES_PER_BUFFER
[000:100] [2022-02-08 18:34:55 +0000.707548][1215] Create OpenSLES input module
with java VM support.
[000:100] [2022-02-08 18:34:55 +0000.707587][1215] Create OpenSLES input module
with buffer num:1
[000:100] [2022-02-08 18:34:55 +0000.707691][1215] Error([Link]): Init the
output and input for audio device template.
[000:100] [2022-02-08 18:34:55 +0000.707721][1215] Init the output device.
[000:101] [2022-02-08 18:34:55 +0000.707742][1215] Init the opensl input.
[000:101] [2022-02-08 18:34:55 +0000.707761][1215] AppDeviceManager get setting
samplerate: 0
[000:101] [2022-02-08 18:34:55 +0000.708332][1215] The device model: 21061119ag
enum value: 0
[000:102] [2022-02-08 18:34:55 +0000.709131][1215] The device model: 21061119ag
enum value: 0
[000:102] [2022-02-08 18:34:55 +0000.709170][1215] Set the sample rate to be:48000
[000:102] [2022-02-08 18:34:55 +0000.709192][1215] Enable the recording stereo:0
[000:102] [2022-02-08 18:34:55 +0000.709211][1215] Set the playout as stereo:1
[000:102] [2022-02-08 18:34:55 +0000.709226][1215] Init the microphone.
[000:104] [2022-02-08 18:34:55 +0000.711722][1215] Update the recording sample rate
to be: 48000
[000:105] [2022-02-08 18:34:55 +0000.711799][1215] Init the speaker.
[000:105] [2022-02-08 18:34:55 +0000.711858][1215] Low latency buffer size:256 low
sample rate:48000
[000:105] [2022-02-08 18:34:55 +0000.712160][1215] Using 1 x 10ms for an audio
frame.
[000:108] [2022-02-08 18:34:55 +0000.715705][1215] Error(splitting_filter.cc:26):
Splitting filter only support two or three bands now.
[000:109] [2022-02-08 18:34:55 +0000.715832][1215] Error(splitting_filter.cc:26):
Splitting filter only support two or three bands now.
[000:109] [2022-02-08 18:34:55 +0000.715908][1215] Error(splitting_filter.cc:26):
Splitting filter only support two or three bands now.
[000:114] [2022-02-08 18:34:55 +0000.721120][1215] The device model:21061119ag
[000:114] [2022-02-08 18:34:55 +0000.721200][1215] speaker output factor:100
defaultFactor: 100
[000:114] [2022-02-08 18:34:55 +0000.721224][1215] headset output factor:100
defaultFactor: 100
[000:114] [2022-02-08 18:34:55 +0000.721723][1215] AppDeviceManagerStart finished.
[000:115] [2022-02-08 18:34:55 +0000.721768][1215] AppDeviceManagerStartMic::mic
status is off
[000:115] [2022-02-08 18:34:55 +0000.721815][1215] AppDeviceManagerStartMic update
aec type: 2
[000:115] [2022-02-08 18:34:55 +0000.721833][1215] AppDeviceManagerStartMic update
voiceChangeMode: 4
[000:115] [2022-02-08 18:34:55 +0000.721848][1215]
AudioDeviceDataHandler::setVoiceChangeMode, mode : 4
[000:115] [2022-02-08 18:34:55 +0000.721863][1215]
AudioDeviceDataHandler::StartMicProcess
[000:115] [2022-02-08 18:34:55 +0000.721975][1215] Try to start webrtc recording
device.
[000:115] [2022-02-08 18:34:55 +0000.722009][1215] StartRecording. threadID:4629
[000:115] [2022-02-08 18:34:55 +0000.722033][16e3] Error([Link]): Set the
pthread name failed with error:34 name:AudioDeviceDataHandler gapProcessThread
[000:115] [2022-02-08 18:34:55 +0000.722164][16e3] haveEnoughProcessedData
[Link]: 0
[000:115] [2022-02-08 18:34:55 +0000.722487][1215] The machine model:21061119AG
[000:115] [2022-02-08 18:34:55 +0000.722545][1215] default mode: Set the recording
mode to voice communication to enable HW AEC .
[000:115] [2022-02-08 18:34:55 +0000.722570][1215] Set the recording mode before
getSetting: 4
[000:115] [2022-02-08 18:34:55 +0000.722592][1215] Set the recording mode after
getSetting: 1
[000:198] [2022-02-08 18:34:55 +0000.805223][1215] StartRecording finished.
[000:198] [2022-02-08 18:34:55 +0000.805288][1215] audio: start the audio mic
checker timer.
[000:199] [2022-02-08 18:34:55 +0000.806056][1215] machine model :redmi
[000:199] [2022-02-08 18:34:55 +0000.806119][1215] Support this machine
model :redmi
[000:199] [2022-02-08 18:34:55 +0000.806286][1215] global inited! current sdk
version: 04-21-feaf968
[000:312] [2022-02-08 18:34:55 +0000.919212][16e4] webrtc device:Handle the data
from samplesPerSec recording sample rate:48000 nSamples:480 nBytesPerSample:#
nChannels:#
[000:312] [2022-02-08 18:34:55 +0000.919369][16e4] _deviceSampleRate:48000
[000:314] [2022-02-08 18:34:55 +0000.921665][16e3] Run AGC when audioType = 0
[000:315] [2022-02-08 18:34:55 +0000.921869][16e3]
AudioDeviceDataHandler::MixAndSendOutFrame
[000:511] [2022-02-08 18:34:56 +0000.117885][125c]
Java_com_xiaomi_recordmediaprocess_OpenGlRender_SetCurrentGLContextJni:
[000:511] [2022-02-08 18:34:56 +0000.118200][16df] MediaFilterCamera, recording
file context:0x76cbe38b80 input texture:8
[000:511] [2022-02-08 18:34:56 +0000.118287][16df] GLESContext:
[000:511] [2022-02-08 18:34:56 +0000.118325][16df] The result of eglGetDisplay is:
0x1
[000:512] [2022-02-08 18:34:56 +0000.119320][16df] The result of creation:
0x76230f1700
[000:513] [2022-02-08 18:34:56 +0000.120130][16df] The result of
eglCreatePbufferSurface is: 0x76230f1780
[000:513] [2022-02-08 18:34:56 +0000.120621][125c]
Java_com_xiaomi_recordmediaprocess_OpenGlRender_SetCurrentGLContextJni:
g_eglcontext: 0x76cbe38b80 input_texture: 8
[001:879] [2022-02-08 18:34:57 +0000.486485][16e3] haveEnoughProcessedData
[Link]: 10
[002:298] [2022-02-08 18:34:57 +0000.905227][16e3] Run AGC when audioType = 0
[003:580] [2022-02-08 18:34:59 +0000.187593][16e3] haveEnoughProcessedData
[Link]: 0
[004:200] [2022-02-08 18:34:59 +0000.807082][16da]
monitorTime:4002totalDuration:3910
[004:298] [2022-02-08 18:34:59 +0000.905419][16e3] Run AGC when audioType = 0
[004:298] [2022-02-08 18:34:59 +0000.905668][16e3]
AudioDeviceDataHandler::MixAndSendOutFrame
[005:287] [2022-02-08 18:35:00 +0000.894259][16e3] haveEnoughProcessedData
[Link]: 10
[006:300] [2022-02-08 18:35:01 +0000.907591][16e3] Run AGC when audioType = 0
[006:991] [2022-02-08 18:35:02 +0000.598060][16e3] haveEnoughProcessedData
[Link]: 10
[008:298] [2022-02-08 18:35:03 +0000.905677][16e3] Run AGC when audioType = 0
[008:299] [2022-02-08 18:35:03 +0000.906098][16e3]
AudioDeviceDataHandler::MixAndSendOutFrame
[008:702] [2022-02-08 18:35:04 +0000.308876][16e3] haveEnoughProcessedData
[Link]: 0
[010:297] [2022-02-08 18:35:05 +0000.904684][16e4] webrtc device:Handle the data
from samplesPerSec recording sample rate:48000 nSamples:480 nBytesPerSample:#
nChannels:#
[010:298] [2022-02-08 18:35:05 +0000.905043][16e4] _deviceSampleRate:48000
[010:299] [2022-02-08 18:35:05 +0000.906578][16e3] Run AGC when audioType = 0
[010:408] [2022-02-08 18:35:06 +0000.14962][16e3] haveEnoughProcessedData
[Link]: 0
[011:635] [2022-02-08 18:35:07 +0000.242301][1215]
Java_com_xiaomi_recordmediaprocess_MediaEffectCamera_DestructMediaEffectCameraJni:
[011:635] [2022-02-08 18:35:07 +0000.242581][1215] ~MediaFilterCamera time:89243063
enter.
[011:635] [2022-02-08 18:35:07 +0000.242627][1215] StopPullFrameAndWriteMp4
time:89243063 enter.
[011:636] [2022-02-08 18:35:07 +0000.243430][16de] stop recording
[011:636] [2022-02-08 18:35:07 +0000.243634][16de] we have stopped recording before
[011:637] [2022-02-08 18:35:07 +0000.244088][1215] StopPullFrameAndWriteMp4 leave.
expire time = 2 ms
[011:638] [2022-02-08 18:35:07 +0000.245085][1215] DestroyPipelineAndFilters
time:89243066 enter.
[011:638] [2022-02-08 18:35:07 +0000.245289][1215] DestroyPipelineAndFilters
leave. expire time = 0 ms
[011:638] [2022-02-08 18:35:07 +0000.245361][1215] AppDeviceManagerStopMic
[011:638] [2022-02-08 18:35:07 +0000.245736][1215] AppDeviceManagerStopMic::mic
status is on
[011:639] [2022-02-08 18:35:07 +0000.245833][1215] Try to stop webrtc device.
[011:639] [2022-02-08 18:35:07 +0000.245902][1215] Set record state to
[Link]
[011:673] [2022-02-08 18:35:07 +0000.280450][1215] Try to destory the
[Link]
[011:873] [2022-02-08 18:35:07 +0000.480700][1215] DestroyAudioRecorder:
[011:874] [2022-02-08 18:35:07 +0000.480885][1215] Cleanup the buffer queue in the
recorder.
[011:874] [2022-02-08 18:35:07 +0000.480938][1215] Destroy the recorder.
[011:881] [2022-02-08 18:35:07 +0000.488505][1215] StopRecording finished.
[011:881] [2022-02-08 18:35:07 +0000.488672][1215] The stop recording success.
[011:881] [2022-02-08 18:35:07 +0000.488728][1215]
AudioDeviceDataHandler::StopMicProcess
[011:883] [2022-02-08 18:35:07 +0000.490654][1215] AppDeviceManager stop.
[011:884] [2022-02-08 18:35:07 +0000.490816][1215] Rlease the webrtc device object.
[011:884] [2022-02-08 18:35:07 +0000.491394][1215] OpenSlesInput destruct.
[011:884] [2022-02-08 18:35:07 +0000.491531][1215] OpenSlesOutput destruct.
[011:885] [2022-02-08 18:35:07 +0000.492642][1215] EventDispatchServerScope
destruct
[011:886] [2022-02-08 18:35:07 +0000.492783][1215]
Warning([Link]): PhysicalSocketServer destruct
[011:886] [2022-02-08 18:35:07 +0000.492903][1215] ~AudioDeviceDataHandler
[011:887] [2022-02-08 18:35:07 +0000.493932][1215] AppDeviceManagerDestruct.
[011:887] [2022-02-08 18:35:07 +0000.494079][1215] ~AppDeviceManager:
[011:887] [2022-02-08 18:35:07 +0000.494201][1215] ~CpuOverloadDetect time:89243315
enter.
[011:887] [2022-02-08 18:35:07 +0000.494649][1215] ~CpuOverloadDetect leave.
expire time = 0 ms
[011:902] [2022-02-08 18:35:07 +0000.509154][1215] Destruct BeautifyReader begin...
[011:902] [2022-02-08 18:35:07 +0000.509397][1215] Destruct BeautifyReader done.
[011:902] [2022-02-08 18:35:07 +0000.509477][1215] ~MediaFilterCamera leave.
expire time = 267 ms
[011:902] [2022-02-08 18:35:07 +0000.509681][1215] ~GLESContext:
[011:903] [2022-02-08 18:35:07 +0000.510067][1215] GLESContext destruct finish.
[011:903] [2022-02-08 18:35:07 +0000.510167][1215] ~RecordingSessionInternalSimple:
Re